Time;durP1;ratioP1;P1;durP2;ratioP2;P2;SDS_P1;SDS_P2;PMS_P1;PMS_P2;Temp;Humidity;BMP_temperature;BMP_pressure;BME280_temperature;BME280_humidity;BME280_pressure;Samples;Min_cycle;Max_cycle;Signal;HPM_P1;HPM_P2
2022/04/24 00:02:06;;;;;;;11.27;6.90;;;9.40;69.30;;;;;;2374940;56;21055;-77
2022/04/24 00:04:35;;;;;;;11.12;6.60;;;9.30;68.90;;;;;;2375440;56;21546;-77
2022/04/24 00:07:03;;;;;;;12.73;7.03;;;9.30;68.70;;;;;;2374074;56;21118;-77
2022/04/24 00:09:30;;;;;;;10.02;6.45;;;9.30;68.70;;;;;;2374439;56;21158;-76
2022/04/24 00:11:58;;;;;;;12.82;6.75;;;9.30;68.70;;;;;;2627335;52;21042;-76
2022/04/24 00:14:25;;;;;;;11.88;6.53;;;9.30;68.90;;;;;;2628555;52;21031;-77
2022/04/24 00:16:52;;;;;;;10.65;6.35;;;9.20;68.90;;;;;;2374363;56;21051;-76
2022/04/24 00:19:20;;;;;;;12.20;7.07;;;9.20;69.00;;;;;;2375147;56;21118;-77
2022/04/24 00:24:24;;;;;;;11.32;6.05;;;9.10;69.30;;;;;;2355613;57;22129;-75
2022/04/24 00:26:52;;;;;;;10.65;5.95;;;9.10;69.30;;;;;;2361702;56;21078;-77
2022/04/24 00:29:19;;;;;;;10.80;6.82;;;9.10;69.40;;;;;;2628221;52;21050;-76
2022/04/24 00:31:46;;;;;;;10.98;6.93;;;9.00;69.40;;;;;;2374171;56;21042;-74
2022/04/24 00:34:14;;;;;;;12.82;6.75;;;9.00;69.60;;;;;;2375323;56;21090;-77
2022/04/24 00:36:41;;;;;;;9.57;6.28;;;9.00;69.60;;;;;;2374018;56;21619;-75
2022/04/24 00:39:08;;;;;;;14.13;6.72;;;9.00;69.90;;;;;;2628581;52;21094;-74
2022/04/24 00:41:43;;;;;;;12.20;6.15;;;9.00;70.10;;;;;;2374473;56;21115;-75
2022/04/24 00:44:10;;;;;;;11.73;6.85;;;9.00;70.10;;;;;;2373909;56;21532;-75
2022/04/24 00:46:41;;;;;;;11.10;6.65;;;9.00;70.10;;;;;;2374176;56;21141;-75
2022/04/24 00:51:45;;;;;;;10.85;6.40;;;8.90;70.20;;;;;;2270788;59;22630;-74
2022/04/24 00:54:13;;;;;;;11.93;6.68;;;8.80;70.30;;;;;;2291583;58;21107;-77
2022/04/24 00:56:42;;;;;;;10.25;6.97;;;8.80;70.50;;;;;;2546100;54;21126;-76
2022/04/24 00:59:11;;;;;;;8.70;6.43;;;8.80;70.60;;;;;;2326675;58;21534;-77
2022/04/24 01:01:40;;;;;;;12.27;7.12;;;8.80;70.60;;;;;;2327322;58;21123;-75
2022/04/24 01:04:08;;;;;;;12.60;6.85;;;8.80;70.70;;;;;;2568916;54;21051;-77
2022/04/24 01:06:39;;;;;;;12.13;7.07;;;8.70;70.80;;;;;;2568311;54;21031;-76
2022/04/24 01:09:14;;;;;;;13.90;7.22;;;8.70;70.90;;;;;;2569911;54;21142;-76
2022/04/24 01:11:43;;;;;;;10.40;6.78;;;8.70;70.90;;;;;;2569793;53;21051;-76
2022/04/24 01:14:11;;;;;;;9.88;6.28;;;8.70;70.80;;;;;;2570550;54;21035;-77
2022/04/24 01:16:39;;;;;;;12.77;6.90;;;8.70;70.90;;;;;;2569188;54;21047;-76
2022/04/24 01:19:07;;;;;;;14.18;7.25;;;8.70;71.00;;;;;;2326948;58;21130;-76
2022/04/24 01:21:35;;;;;;;16.12;6.95;;;8.70;71.10;;;;;;2326245;58;21071;-76
2022/04/24 01:24:05;;;;;;;9.20;6.70;;;8.70;71.20;;;;;;2326796;58;21067;-76
2022/04/24 01:26:33;;;;;;;12.13;7.00;;;8.60;71.20;;;;;;2325502;58;21134;-76
2022/04/24 01:29:00;;;;;;;12.95;6.35;;;8.60;70.60;;;;;;2325617;58;21154;-76
2022/04/24 01:31:28;;;;;;;11.02;6.20;;;8.60;71.10;;;;;;2326521;58;21090;-77
2022/04/24 01:33:55;;;;;;;9.32;5.35;;;8.60;71.00;;;;;;2327133;58;21894;-76
2022/04/24 01:36:23;;;;;;;8.80;6.00;;;8.60;71.00;;;;;;2569133;54;21059;-75
2022/04/24 01:38:50;;;;;;;11.98;6.65;;;8.60;70.90;;;;;;2327362;58;21063;-77
2022/04/24 01:43:53;;;;;;;9.75;5.30;;;8.60;70.90;;;;;;2353171;57;22086;-75
2022/04/24 01:46:20;;;;;;;10.63;5.93;;;8.60;70.80;;;;;;2605772;52;21350;-77
2022/04/24 01:48:48;;;;;;;7.97;5.50;;;8.60;70.80;;;;;;2374973;56;21047;-76
2022/04/24 01:51:16;;;;;;;9.55;5.80;;;8.60;70.80;;;;;;2375574;56;21058;-76
2022/04/24 01:53:44;;;;;;;9.73;6.07;;;8.60;70.90;;;;;;2628588;52;21170;-76
2022/04/24 01:56:12;;;;;;;9.18;5.82;;;8.60;70.80;;;;;;2627803;52;21035;-76
2022/04/24 01:58:40;;;;;;;8.48;5.80;;;8.60;70.80;;;;;;2374903;56;21094;-77
2022/04/24 02:01:09;;;;;;;8.25;4.97;;;8.50;70.70;;;;;;2372805;56;21710;-77
2022/04/24 02:03:37;;;;;;;9.13;4.68;;;8.50;70.70;;;;;;2374873;56;21082;-74
2022/04/24 02:06:05;;;;;;;11.43;5.82;;;8.50;70.70;;;;;;2374650;56;21122;-76
2022/04/24 02:08:35;;;;;;;10.48;5.18;;;8.50;70.70;;;;;;2375034;56;21046;-76
2022/04/24 02:11:02;;;;;;;9.00;4.85;;;8.50;70.70;;;;;;2373961;56;21042;-77
2022/04/24 02:13:30;;;;;;;9.55;5.00;;;8.60;70.70;;;;;;2373962;56;21043;-75
2022/04/24 02:16:16;;;;;;;6.25;4.45;;;8.60;70.80;;;;;;2374835;56;21117;-74
2022/04/24 02:18:44;;;;;;;9.05;4.62;;;8.50;70.60;;;;;;2169041;62;21106;-74
2022/04/24 02:21:13;;;;;;;9.13;4.82;;;8.50;70.50;;;;;;2378772;58;21166;-73
2022/04/24 02:23:40;;;;;;;9.07;4.78;;;8.60;70.50;;;;;;2167882;62;21171;-74
2022/04/24 02:26:08;;;;;;;7.03;4.90;;;8.50;70.30;;;;;;2168040;62;21099;-74
2022/04/24 02:28:35;;;;;;;11.35;5.40;;;8.50;70.30;;;;;;2167996;62;21087;-75
2022/04/24 02:31:02;;;;;;;9.05;5.53;;;8.50;70.10;;;;;;2167960;62;21102;-74
2022/04/24 02:33:30;;;;;;;9.68;4.95;;;8.50;70.30;;;;;;2377796;58;21198;-73
2022/04/24 02:35:57;;;;;;;8.07;4.75;;;8.50;70.10;;;;;;2376817;58;21170;-75
2022/04/24 02:38:24;;;;;;;10.73;5.32;;;8.50;70.00;;;;;;2167540;62;21594;-73
2022/04/24 02:40:52;;;;;;;8.48;4.65;;;8.50;70.00;;;;;;2167123;62;21086;-75
2022/04/24 02:43:19;;;;;;;10.00;4.72;;;8.40;69.90;;;;;;2376660;58;21682;-74
2022/04/24 02:45:47;;;;;;;9.00;5.18;;;8.40;70.00;;;;;;2376614;58;21084;-77
2022/04/24 02:48:14;;;;;;;9.32;4.93;;;8.40;70.10;;;;;;2167822;62;21103;-74
2022/04/24 02:50:41;;;;;;;11.52;6.07;;;8.40;70.20;;;;;;2167698;62;21107;-74
2022/04/24 02:53:09;;;;;;;9.27;5.22;;;8.30;70.30;;;;;;2167283;62;21590;-75
2022/04/24 02:55:36;;;;;;;11.73;5.45;;;8.40;70.40;;;;;;2166753;62;21128;-75
2022/04/24 02:58:04;;;;;;;6.00;4.40;;;8.30;70.40;;;;;;2166566;62;21114;-75
2022/04/24 03:00:42;;;;;;;9.60;4.65;;;8.30;70.50;;;;;;2167216;62;21117;-75
2022/04/24 03:03:10;;;;;;;9.50;5.00;;;8.30;70.60;;;;;;2166138;62;21120;-76
2022/04/24 03:05:37;;;;;;;11.75;5.12;;;8.30;70.60;;;;;;2167002;62;21163;-76
2022/04/24 03:08:05;;;;;;;9.35;5.03;;;8.30;70.70;;;;;;2166478;62;21103;-75
2022/04/24 03:10:33;;;;;;;7.25;5.10;;;8.20;70.80;;;;;;2376227;58;21091;-75
2022/04/24 03:13:00;;;;;;;10.98;4.90;;;8.20;70.60;;;;;;2166412;62;21143;-75
2022/04/24 03:15:27;;;;;;;12.90;5.60;;;8.20;70.80;;;;;;2166233;62;21103;-76
2022/04/24 03:17:55;;;;;;;12.52;5.50;;;8.30;70.90;;;;;;2166818;62;21091;-74
2022/04/24 03:20:22;;;;;;;9.57;4.70;;;8.10;70.90;;;;;;2167058;62;21087;-75
2022/04/24 03:22:50;;;;;;;12.70;5.00;;;8.10;70.90;;;;;;2166406;62;21103;-75
2022/04/24 03:25:17;;;;;;;9.75;5.10;;;8.10;71.10;;;;;;2166809;62;21271;-74
2022/04/24 03:27:44;;;;;;;10.60;5.05;;;8.20;71.40;;;;;;2166807;62;21143;-76
2022/04/24 03:30:12;;;;;;;9.60;4.95;;;8.10;71.30;;;;;;2166331;62;21736;-75
2022/04/24 03:32:40;;;;;;;10.02;5.28;;;8.10;71.60;;;;;;2166727;62;21167;-74
2022/04/24 03:35:09;;;;;;;9.18;5.18;;;8.10;71.60;;;;;;2166097;62;21106;-76
2022/04/24 03:37:38;;;;;;;12.90;5.30;;;8.10;71.70;;;;;;2166381;62;21084;-75
2022/04/24 03:40:08;;;;;;;9.18;5.85;;;8.10;72.40;;;;;;2376062;58;21574;-76
2022/04/24 03:42:36;;;;;;;9.35;4.62;;;8.10;71.70;;;;;;2375444;58;21180;-75
2022/04/24 03:45:06;;;;;;;12.32;5.05;;;8.10;71.80;;;;;;2167048;62;21171;-76
2022/04/24 03:47:34;;;;;;;11.25;5.03;;;8.10;72.00;;;;;;2166783;62;21546;-76
2022/04/24 03:50:01;;;;;;;8.52;5.00;;;8.10;72.00;;;;;;2166519;62;21083;-75
2022/04/24 03:52:28;;;;;;;10.13;5.78;;;8.10;72.10;;;;;;2166813;62;21143;-75
2022/04/24 03:54:55;;;;;;;7.90;5.03;;;8.10;72.30;;;;;;2376277;58;21103;-76
2022/04/24 03:57:23;;;;;;;10.63;5.20;;;8.10;72.40;;;;;;2165815;62;21119;-75
2022/04/24 03:59:50;;;;;;;11.68;5.47;;;8.00;72.40;;;;;;2167133;62;21087;-75
2022/04/24 04:02:17;;;;;;;14.20;5.37;;;8.00;72.50;;;;;;2166720;62;21111;-75
2022/04/24 04:04:45;;;;;;;9.05;4.90;;;8.00;72.60;;;;;;2166943;62;21578;-75
2022/04/24 04:07:12;;;;;;;10.02;5.10;;;8.00;72.70;;;;;;2166128;62;21680;-75
2022/04/24 04:09:39;;;;;;;10.57;5.25;;;8.00;72.70;;;;;;2166990;62;21186;-76
2022/04/24 04:12:10;;;;;;;8.35;4.87;;;8.00;72.60;;;;;;2166951;62;21641;-75
2022/04/24 04:14:38;;;;;;;11.38;5.60;;;8.00;72.70;;;;;;2166973;62;21119;-76
2022/04/24 04:17:08;;;;;;;10.65;4.85;;;8.00;72.70;;;;;;2166351;62;21135;-75
2022/04/24 04:19:36;;;;;;;14.00;5.60;;;8.00;72.80;;;;;;2166719;62;21086;-76
2022/04/24 04:22:04;;;;;;;10.18;5.50;;;8.00;72.70;;;;;;2375762;58;21107;-75
2022/04/24 04:24:31;;;;;;;9.27;5.22;;;8.10;72.70;;;;;;2167234;62;21198;-75
2022/04/24 04:26:58;;;;;;;11.23;5.30;;;8.00;72.60;;;;;;2166175;62;21143;-75
2022/04/24 04:29:26;;;;;;;7.45;4.93;;;8.10;72.80;;;;;;2167259;62;21222;-75
2022/04/24 04:31:53;;;;;;;15.73;6.97;;;8.10;73.00;;;;;;2166195;62;21174;-75
2022/04/24 04:34:20;;;;;;;12.07;6.20;;;8.10;73.00;;;;;;2409943;54;22106;-75
2022/04/24 04:36:48;;;;;;;12.07;6.45;;;8.10;73.10;;;;;;2278729;58;21928;-75
2022/04/24 04:39:16;;;;;;;10.90;6.25;;;8.10;73.30;;;;;;2527316;55;21072;-75
2022/04/24 04:41:43;;;;;;;11.77;6.72;;;8.10;73.60;;;;;;2527362;55;21199;-76
2022/04/24 04:44:10;;;;;;;15.35;6.75;;;8.10;74.50;;;;;;2291654;58;21067;-76
2022/04/24 04:46:38;;;;;;;10.70;5.62;;;8.20;74.00;;;;;;2291405;58;21076;-75
2022/04/24 04:49:05;;;;;;;13.48;6.70;;;8.20;74.20;;;;;;2290216;58;21167;-75
2022/04/24 04:51:33;;;;;;;13.57;7.10;;;8.20;74.40;;;;;;2527452;55;21068;-75
2022/04/24 04:54:00;;;;;;;15.65;7.30;;;8.20;74.50;;;;;;2291638;58;21147;-76
2022/04/24 04:56:28;;;;;;;16.08;7.12;;;8.20;74.70;;;;;;2291199;58;21061;-75
2022/04/24 04:58:55;;;;;;;16.75;7.57;;;8.20;74.90;;;;;;2292034;58;21579;-74
2022/04/24 05:01:22;;;;;;;12.52;6.30;;;8.30;75.20;;;;;;2527119;55;21139;-76
2022/04/24 05:03:49;;;;;;;11.45;7.10;;;8.30;75.60;;;;;;2291866;58;21159;-75
2022/04/24 05:06:17;;;;;;;17.67;7.07;;;8.20;75.80;;;;;;2289894;58;21151;-75
2022/04/24 05:11:20;;;;;;;14.65;6.87;;;8.30;76.30;;;;;;2298719;58;22654;-74
2022/04/24 05:16:24;;;;;;;17.35;7.15;;;8.40;76.70;;;;;;2324910;57;22113;-74
2022/04/24 05:18:51;;;;;;;13.18;6.65;;;8.40;76.90;;;;;;2317502;58;21052;-75
2022/04/24 05:21:18;;;;;;;14.43;7.28;;;8.40;77.10;;;;;;2317458;58;21080;-74
2022/04/24 05:23:48;;;;;;;15.32;6.40;;;8.50;77.40;;;;;;2317859;58;21152;-76
2022/04/24 05:26:15;;;;;;;11.60;5.90;;;8.50;77.40;;;;;;2316791;58;21609;-76
2022/04/24 05:28:43;;;;;;;14.75;6.05;;;8.60;77.40;;;;;;2318271;58;21052;-77
2022/04/24 05:31:10;;;;;;;11.38;5.35;;;8.60;77.40;;;;;;2317837;58;21068;-76
2022/04/24 05:33:38;;;;;;;15.50;7.07;;;8.70;77.40;;;;;;2317921;58;21057;-76
2022/04/24 05:36:06;;;;;;;10.05;6.18;;;8.70;77.40;;;;;;2316466;58;21076;-75
2022/04/24 05:38:34;;;;;;;16.35;6.93;;;8.80;77.60;;;;;;2318284;58;21064;-76
2022/04/24 05:41:02;;;;;;;12.93;5.97;;;8.80;77.90;;;;;;2317447;58;21162;-76
2022/04/24 05:46:05;;;;;;;15.27;7.65;;;8.80;77.60;;;;;;2300026;57;28585;-74
2022/04/24 05:48:32;;;;;;;12.18;6.90;;;8.70;79.90;;;;;;2317560;58;21539;-76
2022/04/24 05:51:01;;;;;;;14.93;5.65;;;8.90;78.70;;;;;;2316066;58;21115;-74
2022/04/24 05:53:28;;;;;;;15.55;7.28;;;9.00;78.00;;;;;;2317147;58;21044;-73
2022/04/24 05:55:56;;;;;;;14.30;6.32;;;9.10;77.60;;;;;;2316087;58;21639;-74
2022/04/24 05:58:23;;;;;;;16.87;6.12;;;9.10;77.00;;;;;;2318146;58;21115;-73
2022/04/24 06:00:50;;;;;;;15.82;6.90;;;9.20;77.30;;;;;;2317184;58;21578;-73
2022/04/24 06:03:18;;;;;;;15.38;6.47;;;9.20;77.50;;;;;;2316644;58;21132;-75
2022/04/24 06:05:47;;;;;;;11.70;6.05;;;9.20;77.60;;;;;;2315746;58;21116;-75
2022/04/24 06:08:14;;;;;;;10.23;5.95;;;9.20;77.80;;;;;;2313033;58;21638;-73
2022/04/24 06:10:42;;;;;;;10.45;5.47;;;9.30;77.30;;;;;;2315391;58;21119;-74
2022/04/24 06:13:10;;;;;;;11.20;5.62;;;9.30;77.40;;;;;;2316016;58;21207;-74
2022/04/24 06:15:39;;;;;;;10.50;5.07;;;9.40;77.20;;;;;;2313674;58;21107;-74
2022/04/24 06:18:07;;;;;;;20.17;6.50;;;9.40;76.80;;;;;;2314814;58;21810;-76
2022/04/24 06:20:34;;;;;;;18.58;6.03;;;9.40;76.90;;;;;;2313983;58;21124;-75
2022/04/24 06:23:01;;;;;;;11.57;5.43;;;9.50;76.80;;;;;;2314813;58;21080;-75
2022/04/24 06:25:30;;;;;;;9.93;5.65;;;9.50;76.80;;;;;;2313435;58;21072;-76
2022/04/24 06:27:58;;;;;;;9.23;5.10;;;9.60;76.70;;;;;;2555231;54;22550;-74
2022/04/24 06:33:01;;;;;;;12.15;6.12;;;9.60;76.80;;;;;;2330160;57;27830;-75
2022/04/24 06:35:28;;;;;;;8.98;5.45;;;9.60;78.50;;;;;;2345049;57;22063;-77
2022/04/24 06:37:56;;;;;;;14.82;6.22;;;9.80;77.00;;;;;;2623127;52;21114;-76
2022/04/24 06:40:25;;;;;;;9.32;5.28;;;9.90;75.40;;;;;;2370750;56;21122;-76
2022/04/24 06:42:54;;;;;;;8.82;5.20;;;9.90;75.10;;;;;;2370819;56;21055;-75
2022/04/24 06:45:25;;;;;;;14.48;5.60;;;10.00;75.10;;;;;;2372181;56;21054;-74
2022/04/24 06:47:53;;;;;;;8.30;5.25;;;10.00;74.90;;;;;;2372408;56;21118;-75
2022/04/24 06:50:22;;;;;;;12.45;5.18;;;10.00;74.60;;;;;;2626750;52;21051;-75
2022/04/24 06:53:01;;;;;;;9.30;4.93;;;10.00;74.20;;;;;;2372204;56;21063;-76
2022/04/24 06:55:29;;;;;;;8.90;5.07;;;10.10;74.20;;;;;;2623962;52;21043;-75
2022/04/24 06:57:57;;;;;;;12.55;4.82;;;10.10;74.00;;;;;;2372683;56;21533;-76
2022/04/24 07:00:25;;;;;;;11.12;4.90;;;10.10;73.30;;;;;;2372343;56;21126;-75
2022/04/24 07:02:53;;;;;;;7.68;4.90;;;10.10;73.60;;;;;;2627094;52;21126;-75
2022/04/24 07:05:22;;;;;;;12.63;5.35;;;10.20;73.60;;;;;;2372267;56;21417;-75
2022/04/24 07:07:49;;;;;;;9.68;5.03;;;10.20;72.60;;;;;;2626596;52;21105;-75
2022/04/24 07:10:17;;;;;;;6.68;4.20;;;10.30;72.80;;;;;;2625035;52;21047;-76
2022/04/24 07:12:49;;;;;;;12.15;4.75;;;10.30;72.50;;;;;;2372778;56;21055;-75
2022/04/24 07:15:18;;;;;;;9.70;4.78;;;10.30;72.40;;;;;;2373173;56;21078;-75
2022/04/24 07:17:46;;;;;;;9.23;4.82;;;10.30;72.40;;;;;;2372793;56;21061;-75
2022/04/24 07:20:15;;;;;;;10.32;4.68;;;10.40;72.80;;;;;;2625748;52;21632;-75
2022/04/24 07:22:45;;;;;;;8.13;4.45;;;10.40;72.70;;;;;;2372802;56;21054;-75
2022/04/24 07:25:14;;;;;;;7.65;4.60;;;10.50;71.90;;;;;;2373046;56;21143;-75
2022/04/24 07:27:41;;;;;;;9.80;4.70;;;10.50;71.90;;;;;;2372905;56;21051;-76
2022/04/24 07:30:13;;;;;;;10.35;4.62;;;10.60;72.10;;;;;;2373095;56;21047;-75
2022/04/24 07:32:42;;;;;;;8.90;4.47;;;10.60;71.50;;;;;;2372349;56;21114;-75
2022/04/24 07:35:13;;;;;;;8.18;4.82;;;10.60;72.30;;;;;;2373631;56;21039;-76
2022/04/24 07:37:42;;;;;;;8.13;4.93;;;10.70;71.20;;;;;;2372955;56;21130;-75
2022/04/24 07:40:12;;;;;;;6.22;4.35;;;10.80;70.40;;;;;;2373834;56;21130;-75
2022/04/24 07:45:26;;;;;;;8.60;5.40;;;10.90;69.60;;;;;;2331260;57;27797;-76
2022/04/24 07:47:55;;;;;;;10.43;4.45;;;11.00;70.10;;;;;;2367235;56;21255;-77
2022/04/24 07:50:23;;;;;;;9.93;4.20;;;11.00;69.60;;;;;;2371200;56;21664;-79
2022/04/24 07:52:51;;;;;;;9.95;4.57;;;11.10;69.70;;;;;;2372578;56;21054;-78
2022/04/24 07:55:22;;;;;;;10.70;4.32;;;11.20;69.50;;;;;;2372519;56;21136;-76
2022/04/24 07:57:50;;;;;;;7.35;4.40;;;11.20;69.50;;;;;;2371800;56;21050;-78
2022/04/24 08:00:21;;;;;;;7.62;4.20;;;11.20;68.90;;;;;;2625604;52;21177;-78
2022/04/24 08:05:27;;;;;;;10.77;5.30;;;11.40;68.90;;;;;;2330423;57;22158;-78
2022/04/24 08:07:56;;;;;;;8.95;4.07;;;11.40;68.80;;;;;;2344968;57;21066;-79
2022/04/24 08:10:25;;;;;;;5.15;3.85;;;11.40;68.20;;;;;;2345737;57;21502;-78
2022/04/24 08:12:53;;;;;;;6.53;3.75;;;11.50;67.80;;;;;;2346041;57;21049;-78
2022/04/24 08:15:20;;;;;;;8.98;4.10;;;11.50;67.80;;;;;;2345645;57;21461;-78
2022/04/24 08:17:48;;;;;;;12.68;4.75;;;11.50;67.30;;;;;;2345712;57;21157;-79
2022/04/24 08:20:17;;;;;;;7.72;4.35;;;11.50;66.90;;;;;;2593599;52;22205;-79
2022/04/24 08:22:45;;;;;;;6.47;3.55;;;11.50;66.40;;;;;;2346219;57;21053;-77
2022/04/24 08:25:15;;;;;;;9.75;4.37;;;11.50;67.60;;;;;;2592305;52;21053;-79
2022/04/24 08:27:42;;;;;;;9.50;4.20;;;11.50;66.00;;;;;;2593455;53;21638;-79
2022/04/24 08:30:13;;;;;;;11.95;4.37;;;11.50;66.20;;;;;;2592575;53;21121;-79
2022/04/24 08:32:41;;;;;;;8.13;4.50;;;11.50;66.00;;;;;;2346357;57;21604;-79
2022/04/24 08:35:10;;;;;;;9.45;4.30;;;11.50;65.70;;;;;;2345537;57;21124;-79
2022/04/24 08:37:38;;;;;;;8.77;4.03;;;11.50;66.40;;;;;;2345875;57;21068;-79
2022/04/24 08:40:08;;;;;;;6.00;3.90;;;11.60;66.80;;;;;;2345794;57;21053;-79
2022/04/24 08:42:36;;;;;;;11.45;4.15;;;11.60;66.00;;;;;;2593171;53;21041;-79
2022/04/24 08:45:07;;;;;;;6.93;4.57;;;11.70;66.70;;;;;;2345680;57;22524;-79
2022/04/24 08:47:34;;;;;;;8.63;4.60;;;11.60;67.00;;;;;;2345504;57;21145;-79
2022/04/24 08:50:03;;;;;;;6.10;3.50;;;11.70;67.10;;;;;;2344195;57;21045;-79
2022/04/24 08:52:31;;;;;;;9.63;4.15;;;11.70;66.30;;;;;;2345372;57;21120;-78
2022/04/24 08:54:59;;;;;;;8.63;4.28;;;11.80;66.30;;;;;;2345539;57;21073;-78
2022/04/24 08:57:27;;;;;;;6.70;3.75;;;11.80;64.10;;;;;;2346011;57;21101;-79
2022/04/24 08:59:54;;;;;;;5.95;3.62;;;11.70;64.00;;;;;;2346917;57;21034;-78
2022/04/24 09:02:22;;;;;;;11.45;4.03;;;11.70;64.50;;;;;;2345740;57;21053;-78
2022/04/24 09:04:52;;;;;;;7.97;3.33;;;11.70;64.20;;;;;;2345703;57;21125;-78
2022/04/24 09:07:21;;;;;;;10.60;4.10;;;11.70;64.50;;;;;;2345338;57;21132;-79
2022/04/24 09:09:49;;;;;;;5.10;3.58;;;11.80;65.60;;;;;;2345878;57;21069;-78
2022/04/24 09:12:19;;;;;;;9.02;4.20;;;11.80;66.10;;;;;;2346342;57;21399;-78
2022/04/24 09:14:49;;;;;;;9.73;3.60;;;11.90;65.80;;;;;;2345590;57;21072;-78
2022/04/24 09:17:18;;;;;;;6.35;3.90;;;11.90;65.30;;;;;;2591563;53;21643;-78
2022/04/24 09:19:46;;;;;;;4.82;3.03;;;11.90;65.10;;;;;;2344752;57;21121;-76
2022/04/24 09:22:13;;;;;;;9.88;4.40;;;11.90;64.00;;;;;;2344242;57;21538;-77
2022/04/24 09:24:42;;;;;;;8.20;4.37;;;11.90;64.50;;;;;;2344000;57;21245;-77
2022/04/24 09:27:11;;;;;;;7.90;3.83;;;11.90;63.80;;;;;;2591338;53;21046;-77
2022/04/24 09:29:40;;;;;;;10.20;3.80;;;11.90;63.50;;;;;;2344206;57;21034;-77
2022/04/24 09:32:12;;;;;;;7.18;3.78;;;12.00;64.70;;;;;;2591276;53;21109;-77
2022/04/24 09:34:40;;;;;;;5.05;3.40;;;12.00;64.90;;;;;;2344578;57;21121;-77
2022/04/24 09:37:09;;;;;;;6.75;3.78;;;12.00;63.60;;;;;;2344135;57;21074;-77
2022/04/24 09:39:37;;;;;;;5.95;3.72;;;12.00;62.70;;;;;;2344464;57;21056;-77
2022/04/24 09:42:07;;;;;;;8.55;3.78;;;12.00;63.10;;;;;;2591023;53;21042;-77
2022/04/24 09:44:42;;;;;;;8.40;4.25;;;12.00;63.70;;;;;;2344075;57;21049;-77
2022/04/24 09:47:11;;;;;;;11.57;4.12;;;12.00;64.00;;;;;;2344094;57;21054;-77
2022/04/24 09:49:39;;;;;;;9.10;3.65;;;12.10;64.40;;;;;;2591265;53;21050;-77
2022/04/24 09:52:12;;;;;;;10.80;4.30;;;12.00;63.10;;;;;;2589809;53;21050;-77
2022/04/24 09:54:41;;;;;;;7.37;3.87;;;12.00;62.20;;;;;;2342214;57;21602;-76
2022/04/24 09:57:10;;;;;;;10.93;4.15;;;12.00;63.50;;;;;;2343519;57;21644;-77
2022/04/24 09:59:40;;;;;;;7.93;4.05;;;12.00;63.40;;;;;;2590785;52;21042;-77
2022/04/24 10:02:09;;;;;;;10.18;3.67;;;12.00;62.70;;;;;;2343666;57;21058;-77
2022/04/24 10:04:38;;;;;;;11.15;5.28;;;12.00;63.10;;;;;;2591274;52;21704;-77
2022/04/24 10:07:10;;;;;;;6.55;3.47;;;12.10;64.10;;;;;;2344166;57;21133;-77
2022/04/24 10:09:39;;;;;;;8.98;4.18;;;12.10;64.20;;;;;;2591837;53;21275;-77
2022/04/24 10:12:09;;;;;;;7.22;4.20;;;12.10;63.90;;;;;;2591368;53;21117;-77
2022/04/24 10:14:42;;;;;;;11.48;4.72;;;12.10;62.80;;;;;;2344882;57;21609;-74
2022/04/24 10:17:37;;;;;;;7.40;3.58;;;12.20;63.10;;;;;;2345129;57;21053;-75
2022/04/24 10:20:29;;;;;;;8.68;4.05;;;12.20;63.30;;;;;;2343610;57;21105;-76
2022/04/24 10:22:59;;;;;;;8.30;3.87;;;12.30;64.80;;;;;;2344775;57;21129;-77
2022/04/24 10:25:32;;;;;;;10.68;3.67;;;12.50;65.90;;;;;;2344991;57;21559;-77
2022/04/24 10:28:11;;;;;;;8.95;4.05;;;12.70;65.00;;;;;;2345816;57;21134;-78
2022/04/24 10:30:38;;;;;;;8.43;4.35;;;12.80;65.40;;;;;;2345597;57;21061;-78
2022/04/24 10:33:21;;;;;;;8.68;3.78;;;12.90;62.40;;;;;;2345348;57;21125;-77
2022/04/24 10:35:52;;;;;;;11.12;4.57;;;12.90;61.40;;;;;;2591896;52;21092;-77
2022/04/24 10:38:21;;;;;;;8.77;3.62;;;13.00;62.40;;;;;;2593130;53;21049;-77
2022/04/24 10:41:03;;;;;;;8.70;4.20;;;13.10;64.00;;;;;;2344826;57;21041;-77
2022/04/24 10:43:38;;;;;;;7.30;3.87;;;13.30;62.70;;;;;;2344646;57;21088;-78
2022/04/24 10:46:17;;;;;;;13.48;4.60;;;13.30;62.90;;;;;;2591262;53;21046;-78
2022/04/24 10:48:46;;;;;;;6.60;3.62;;;13.30;61.60;;;;;;2345190;57;21125;-78
2022/04/24 10:51:28;;;;;;;8.10;3.83;;;13.40;61.40;;;;;;2593076;53;21109;-85
2022/04/24 10:54:21;;;;;;;11.07;4.75;;;13.40;61.10;;;;;;2595650;52;21135;-85
2022/04/24 10:57:04;;;;;;;11.73;4.53;;;13.40;62.30;;;;;;2595369;53;21081;-84
2022/04/24 11:00:13;;;;;;;9.90;4.40;;;13.50;62.10;;;;;;2596397;53;21049;-85
2022/04/24 11:02:54;;;;;;;9.45;4.53;;;13.60;61.80;;;;;;2595834;53;21072;-85
2022/04/24 11:05:27;;;;;;;9.93;4.20;;;13.70;62.20;;;;;;2348448;57;21077;-84
2022/04/24 11:08:17;;;;;;;7.07;4.47;;;13.70;61.60;;;;;;2596239;52;21090;-84
2022/04/24 11:11:13;;;;;;;11.40;4.62;;;13.70;61.00;;;;;;2348477;57;21057;-84
2022/04/24 11:13:49;;;;;;;9.07;4.37;;;13.80;61.00;;;;;;2348332;57;21203;-84
2022/04/24 11:16:45;;;;;;;6.28;4.40;;;13.70;60.50;;;;;;2348432;57;21657;-83
2022/04/24 11:19:25;;;;;;;10.70;4.57;;;13.80;61.20;;;;;;2592998;53;21030;-82
2022/04/24 11:21:56;;;;;;;8.95;4.05;;;13.80;61.70;;;;;;2595790;52;21077;-81
2022/04/24 11:24:25;;;;;;;11.98;4.82;;;13.80;60.00;;;;;;2595182;52;21046;-81
2022/04/24 11:26:53;;;;;;;9.35;4.37;;;13.80;60.70;;;;;;2348041;57;21054;-83
2022/04/24 11:29:29;;;;;;;14.02;4.75;;;13.80;60.10;;;;;;2349009;57;21204;-82
2022/04/24 11:32:17;;;;;;;7.75;4.20;;;13.80;59.30;;;;;;2349121;57;21125;-82
2022/04/24 11:34:50;;;;;;;7.68;4.22;;;13.80;59.40;;;;;;2348328;56;21033;-85
2022/04/24 11:37:18;;;;;;;10.25;5.00;;;13.80;59.90;;;;;;2348342;57;21052;-86
2022/04/24 11:40:01;;;;;;;9.02;4.68;;;13.60;58.60;;;;;;2348429;57;21085;-85
2022/04/24 11:42:28;;;;;;;12.27;4.97;;;13.50;58.80;;;;;;2348977;57;21046;-84
2022/04/24 11:50:26;;;;;;;13.68;5.12;;;13.20;60.20;;;;;;2348908;57;21010;-84
2022/04/24 11:53:05;;;;;;;8.68;4.95;;;13.20;60.90;;;;;;2595743;53;21085;-83
2022/04/24 11:58:52;;;;;;;9.63;4.40;;;13.20;61.30;;;;;;2549176;53;21101;-85
2022/04/24 12:01:21;;;;;;;10.65;5.22;;;13.10;61.70;;;;;;2595961;53;21050;-84
2022/04/24 12:03:59;;;;;;;9.75;4.53;;;13.20;62.10;;;;;;2595442;52;21570;-85
2022/04/24 12:06:32;;;;;;;11.10;4.53;;;13.10;62.00;;;;;;2595422;52;21120;-84
2022/04/24 12:09:14;;;;;;;9.00;4.68;;;13.30;63.60;;;;;;2348518;57;21644;-85
2022/04/24 12:11:52;;;;;;;9.70;5.12;;;13.40;63.30;;;;;;2595651;53;22198;-83
2022/04/24 12:14:40;;;;;;;11.12;4.85;;;13.40;63.60;;;;;;2594720;52;21049;-83
2022/04/24 12:17:13;;;;;;;12.77;5.30;;;13.60;63.70;;;;;;2593855;52;21133;-85
2022/04/24 12:19:42;;;;;;;;;;;13.60;62.70;;;;;;2599302;52;21042;-84
2022/04/24 12:22:25;;;;;;;13.05;5.55;;;13.60;61.40;;;;;;2348381;57;20709;-84
2022/04/24 12:24:53;;;;;;;8.93;4.78;;;13.60;60.20;;;;;;2595882;52;21040;-83
2022/04/24 12:27:20;;;;;;;10.00;5.07;;;13.50;59.90;;;;;;2595564;53;21119;-84
2022/04/24 12:29:49;;;;;;;8.93;5.00;;;13.50;60.30;;;;;;2596377;52;21149;-82
2022/04/24 12:32:21;;;;;;;8.98;4.15;;;13.50;60.10;;;;;;2595512;53;21050;-83
2022/04/24 12:34:49;;;;;;;12.95;5.15;;;13.50;60.40;;;;;;2595613;52;21049;-83
2022/04/24 12:37:29;;;;;;;15.85;5.22;;;13.50;60.80;;;;;;2595171;53;21049;-84
2022/04/24 12:40:05;;;;;;;9.45;5.28;;;13.50;62.20;;;;;;2595583;53;21034;-85
2022/04/24 12:42:50;;;;;;;11.25;5.00;;;13.40;60.20;;;;;;2348374;57;21033;-86
2022/04/24 12:45:22;;;;;;;13.38;6.00;;;13.40;60.70;;;;;;2594747;52;21069;-84
2022/04/24 12:47:54;;;;;;;16.90;5.90;;;13.40;61.50;;;;;;2595018;53;21105;-83
2022/04/24 12:50:33;;;;;;;17.27;6.00;;;13.40;61.70;;;;;;2595489;53;21138;-82
2022/04/24 12:53:12;;;;;;;14.68;5.32;;;13.40;62.10;;;;;;2594779;53;21085;-84
2022/04/24 12:55:51;;;;;;;11.75;4.80;;;13.50;62.90;;;;;;2347488;57;21120;-85
2022/04/24 12:58:55;;;;;;;11.23;5.05;;;13.70;62.90;;;;;;2347154;57;21082;-84
2022/04/24 13:01:25;;;;;;;7.57;5.47;;;13.80;63.20;;;;;;2586977;53;21077;-85
2022/04/24 13:04:01;;;;;;;10.00;5.57;;;13.80;60.50;;;;;;2562192;53;21614;-85
2022/04/24 13:06:33;;;;;;;12.70;5.78;;;13.90;60.40;;;;;;2595182;53;21478;-82
2022/04/24 13:09:29;;;;;;;11.00;5.95;;;13.90;60.60;;;;;;2595416;53;21053;-85
2022/04/24 13:14:41;;;;;;;13.35;5.28;;;14.10;61.00;;;;;;2354076;57;22336;-74
2022/04/24 13:19:53;;;;;;;12.40;5.40;;;14.20;60.70;;;;;;2373598;56;21608;-74
2022/04/24 13:22:21;;;;;;;9.98;4.68;;;14.30;60.90;;;;;;2373628;56;21115;-74
2022/04/24 13:24:48;;;;;;;11.52;6.15;;;14.30;59.50;;;;;;2373624;56;21035;-74
2022/04/24 13:27:15;;;;;;;14.27;5.62;;;14.30;58.00;;;;;;2626445;52;21122;-76
2022/04/24 13:29:43;;;;;;;11.25;5.72;;;14.20;58.20;;;;;;2373627;56;21918;-76
2022/04/24 13:32:10;;;;;;;19.45;5.87;;;14.20;59.20;;;;;;2372824;56;21059;-74
2022/04/24 13:34:38;;;;;;;12.20;5.25;;;14.30;59.80;;;;;;2373577;56;21134;-75
2022/04/24 13:39:51;;;;;;;8.82;4.90;;;14.50;60.00;;;;;;2372725;56;21002;-74
2022/04/24 13:42:19;;;;;;;10.35;5.62;;;14.40;58.60;;;;;;2373032;56;21889;-74